RJNY(METAR)
08/15 05:00
METAR RJNY 142000Z 00000KT 9999 FEW005 27/25 Q1007 RMK 1ST005 A2975=
戻る
トップページへ戻る
IMOC Co,.Ltd.